Latest Coastal Weather Observations for Weipa

IDQ60701

Issued at 3:42 am EST Friday 20 April 2018 (issued every 10 minutes, with the page automatically refreshed every 10 minutes)

About coastal observations | Map of coastal stations | Coastal observations for QLD | Marine services | Other Formats
Station Details ID: 027045 Name: WEIPA AERO Lat: -12.68 Lon: 141.92 Height: 17.96 m
Data from the previous 72 hours. | See also: Recent months at Weipa
Date/Time
EST
Temp
°C
Wind Pressure Rain since
9am
mm
Weather Cloud Vis
km
Sea
Height
m
Swell
Dir  Spd
kts
Gust
kts
hPa Trend Height
m
Period
s
Dir
20/03:30am 23.6 SE 7 9 1010.1 - - - Clear 10 - - - -
20/03:00am 23.6 SE 7 9 1010.3 - 0.0 - - 10 - - - -
20/02:30am 23.7 SE 7 9 1010.4 - - - - 10 - - - -
20/02:00am 23.8 SE 7 10 1010.7 - - - - 10 - - - -
20/01:30am 23.9 SE 8 11 1011.0 - - - - 10 - - - -
20/01:00am 23.6 SE 7 9 1011.3 - - - - 10 - - - -
20/12:30am 23.6 ESE 6 7 1011.7 - - - - 10 - - - -
20/12:00am 23.8 ESE 6 8 1011.9 - - - - 10 - - - -
 
Date/Time
EST
Temp
°C
Wind Pressure Rain since
9am
mm
Weather Cloud Vis
km
Sea
Height
m
Swell
Dir  Spd
kts
Gust
kts
hPa Trend Height
m
Period
s
Dir
19/11:30pm 24.1 ESE 7 8 1012.0 - - - - 10 - - - -
19/11:00pm 24.2 ESE 7 8 1012.0 - - - - 10 - - - -
19/10:30pm 24.7 ESE 7 10 1012.1 - - - - 10 - - - -
19/10:00pm 25.2 ESE 9 12 1012.2 - - - - 10 - - - -
19/09:30pm 25.7 ESE 10 13 1011.9 - - - - 10 - - - -
19/09:00pm 26.1 ESE 8 11 1011.5 - - - - 10 - - - -
19/08:30pm 27.0 ESE 12 15 1011.2 - - - - 10 - - - -
19/08:00pm 27.5 ESE 12 16 1010.8 - - - - 10 - - - -
19/07:30pm 27.5 ESE 9 13 1010.3 - - - - 10 - - - -
19/07:00pm 27.3 ESE 6 7 1009.9 - - - - 10 - - - -
19/06:30pm 28.3 E 7 10 1009.6 - - - - 10 - - - -
19/06:00pm 29.3 ESE 11 16 1009.5 - - - - 10 - - - -
19/05:30pm 30.3 E 10 13 1009.0 - - - - 10 - - - -
19/05:00pm 30.7 ESE 14 19 1008.8 - - - - 10 - - - -
19/04:30pm 30.7 ESE 15 20 1008.5 - - - Partly cloudy 10 - - - -
19/04:00pm 31.8 ESE 13 18 1008.3 - - - - 10 - - - -
19/03:30pm 31.8 E 13 18 1008.4 - - - - - - - - -
19/03:00pm 31.8 ESE 12 17 1008.6 - 0.0 - Mostly clear 10 - - - -
19/02:30pm 31.7 ESE 13 19 1008.7 - 0.0 - Partly cloudy 10 - - - -
19/02:00pm 31.5 E 13 18 1009.0 - 0.0 - Partly cloudy 10 - - - -
19/01:30pm 30.7 E 13 18 1009.5 - 0.0 - Partly cloudy 10 - - - -
19/01:00pm 31.8 E 12 17 1009.9 - 0.0 - Partly cloudy 10 - - - -
19/12:30pm 30.9 ESE 13 18 1010.3 - 0.0 - Partly cloudy 10 - - - -
19/12:00pm 30.9 ENE 14 19 1010.7 - 0.0 - Partly cloudy 10 - - - -
19/11:30am 29.7 E 15 18 1011.2 - 0.0 - Partly cloudy 10 - - - -
19/11:00am 30.3 E 15 21 1011.7 - 0.0 - Cloudy 10 - - - -
19/10:30am 29.2 ESE 15 19 1011.9 - 0.0 - Partly cloudy 10 - - - -
19/10:00am 29.0 ESE 14 19 1011.8 - 0.0 - Partly cloudy 10 - - - -
19/09:30am 28.0 ESE 15 20 1011.9 - 0.0 - Partly cloudy 10 - - - -
19/09:00am 27.5 ESE 15 20 1011.8 - 0.2 - - 10 - - - -
19/08:30am 26.7 ESE 12 16 1011.7 - 0.2 - - 10 - - - -
19/08:00am 25.5 ESE 12 15 1011.4 - 0.2 - - 10 - - - -
19/07:30am 25.2 ESE 7 9 1011.3 - 0.2 - - 10 - - - -
19/07:00am 24.2 ESE 6 8 1011.0 - 0.2 - - 10 - - - -
19/06:30am 24.0 ESE 6 9 1010.7 - 0.2 - - 10 - - - -
19/06:00am 24.1 ESE 6 8 1010.4 - 0.2 - - 10 - - - -
19/05:30am 24.3 SE 5 7 1010.2 - 0.2 - - 10 - - - -
19/05:00am 24.4 SE 5 8 1010.2 - 0.2 - - 10 - - - -
19/04:30am 24.4 SE 5 7 1010.1 - 0.2 - - 10 - - - -
19/04:00am 24.5 ESE 6 8 1010.1 - 0.2 - - 10 - - - -
19/03:30am 24.7 ESE 7 9 1010.1 - 0.2 - - 10 - - - -
19/03:00am 25.1 ESE 8 10 1010.1 - 0.2 - - 10 - - - -
19/02:30am 25.1 ESE 7 10 1010.2 - 0.2 - - 10 - - - -
19/02:00am 25.0 E 7 9 1010.5 - 0.2 - - 10 - - - -
19/01:30am 25.1 E 5 9 1010.9 - 0.2 - - 10 - - - -
19/01:00am 25.2 ESE 5 6 1011.2 - 0.2 - - 10 - - - -
19/12:30am 25.5 ESE 5 7 1011.4 - 0.2 - - 10 - - - -
19/12:00am 25.9 E 6 7 1011.3 - 0.2 - Mostly cloudy 10 - - - -
 
Date/Time
EST
Temp
°C
Wind Pressure Rain since
9am
mm
Weather Cloud Vis
km
Sea
Height
m
Swell
Dir  Spd
kts
Gust
kts
hPa Trend Height
m
Period
s
Dir
18/11:30pm 26.3 ESE 7 10 1011.5 - 0.2 - Partly cloudy 10 - - - -
18/11:00pm 26.5 ESE 7 11 1011.3 - 0.2 - Partly cloudy 10 - - - -
18/10:30pm 26.3 E 7 10 1011.2 - 0.2 - Partly cloudy 10 - - - -
18/10:00pm 26.2 E 7 10 1011.6 - 0.2 - Partly cloudy 10 - - - -
18/09:30pm 26.2 E 5 9 1011.3 - 0.2 - - 10 - - - -
18/09:00pm 26.6 E 8 10 1011.3 - 0.2 - Mostly clear 10 - - - -
18/08:30pm 26.7 E 7 9 1011.3 - 0.2 - Partly cloudy 10 - - - -
18/08:00pm 27.1 E 7 9 1010.9 - 0.2 - - 10 - - - -
18/07:30pm 27.9 ENE 8 14 1010.5 - 0.2 - Partly cloudy 10 - - - -
18/07:00pm 28.1 E 8 10 1010.0 - 0.2 - Partly cloudy 10 - - - -
18/06:30pm 28.4 E 9 11 1009.5 - 0.2 - Partly cloudy 10 - - - -
18/06:00pm 28.7 ESE 12 17 1009.0 - 0.2 - Partly cloudy 10 - - - -
18/05:30pm 30.2 ESE 12 18 1008.6 - 0.2 - Partly cloudy 10 - - - -
18/05:00pm 31.1 E 11 15 1008.1 - 0.2 - Partly cloudy 10 - - - -
18/04:30pm 31.4 E 10 13 1008.0 - 0.2 - Partly cloudy 10 - - - -
18/04:00pm 31.3 E 14 17 1007.9 - 0.2 - Partly cloudy 10 - - - -
18/03:30pm 32.7 E 9 13 1007.9 - 0.2 - Partly cloudy 10 - - - -
18/03:00pm 31.6 E 12 17 1008.0 - 0.2 - Partly cloudy 10 - - - -
18/02:30pm 32.6 E 13 19 1008.2 - 0.2 - - 10 - - - -
18/02:00pm 32.0 E 12 19 1008.3 - 0.2 - Partly cloudy 10 - - - -
18/01:30pm 31.8 E 13 19 1008.7 - 0.2 - Partly cloudy 10 - - - -
18/01:00pm 32.3 E 14 20 1008.9 - 0.2 - Partly cloudy 10 - - - -
18/12:30pm 31.7 E 13 18 1009.5 - 0.2 - Partly cloudy 10 - - - -
18/12:00pm 30.9 E 12 16 1010.0 - 0.2 - Cloudy 10 - - - -
18/11:30am 31.4 E 14 22 1010.4 - 0.2 - Partly cloudy 10 - - - -
18/11:00am 30.3 E 15 22 1010.8 - 0.2 - Partly cloudy 10 - - - -
18/10:30am 30.0 E 14 21 1011.1 - 0.2 - Partly cloudy 10 - - - -
18/10:00am 29.4 E 12 21 1011.3 - 0.2 - - 10 - - - -
18/09:30am 28.7 E 11 17 1011.2 - 0.0 - - 10 - - - -
18/09:00am 27.7 E 9 14 1011.1 - 10.4 - - 10 - - - -
18/08:30am 26.7 E 11 15 1011.0 - 10.4 - - 10 - - - -
18/08:00am 26.0 ESE 11 13 1010.9 - 10.4 - - 10 - - - -
18/07:30am 25.2 ESE 7 9 1010.9 - 10.4 - - 10 - - - -
18/07:00am 24.7 SE 6 9 1010.3 - 10.4 - - 10 - - - -
18/06:30am 24.6 SE 7 9 1009.7 - 10.4 - - 10 - - - -
18/06:00am 24.4 ESE 7 9 1009.7 - 10.4 - - 10 - - - -
18/05:30am 24.5 ESE 5 7 1009.6 - 10.4 - - 10 - - - -
18/05:00am 24.7 SE 6 9 1009.4 - 10.4 - - 10 - - - -
18/04:30am 24.7 SE 6 8 1009.4 - 10.4 - - 10 - - - -
18/04:00am 24.6 ESE 6 9 1009.4 - 10.4 - - 9 - - - -
18/03:30am 24.8 ESE 7 9 1009.5 - 10.4 - - 9 - - - -
18/03:00am 24.8 SE 6 8 1009.6 - 10.4 - - 9 - - - -
18/02:30am 24.9 ESE 6 8 1010.0 - 10.4 - - 9 - - - -
18/02:00am 24.9 ESE 6 8 1010.0 - 10.4 - - 9 - - - -
18/01:30am 25.0 ESE 6 8 1010.3 - 10.4 - - 10 - - - -
18/01:00am 25.0 ESE 4 5 1010.8 - 10.4 - - 10 - - - -
18/12:30am 25.3 E 5 6 1011.3 - 10.4 - - 10 - - - -
18/12:00am 25.3 ESE 5 6 1011.3 - 10.4 - - 10 - - - -
 
Date/Time
EST
Temp
°C
Wind Pressure Rain since
9am
mm
Weather Cloud Vis
km
Sea
Height
m
Swell
Dir  Spd
kts
Gust
kts
hPa Trend Height
m
Period
s
Dir
17/11:30pm 25.6 E 5 7 1011.2 - 10.4 - - 10 - - - -
17/11:00pm 25.7 ESE 5 7 1011.1 - 10.4 - - 10 - - - -
17/10:30pm 26.1 ESE 5 6 1011.1 - 10.4 - - 10 - - - -
17/10:00pm 26.3 ESE 5 6 1011.2 - 10.4 - - 10 - - - -
17/09:30pm 26.5 ESE 6 8 1011.1 - 10.4 - - 10 - - - -
17/09:00pm 26.7 ESE 4 6 1010.9 - 10.4 - - 10 - - - -
17/08:30pm 27.4 E 5 6 1010.5 - 10.4 - Partly cloudy 10 - - - -
17/08:00pm 27.8 ENE 7 9 1009.6 - 10.4 - Cloudy 10 - - - -
17/07:30pm 28.2 ENE 6 7 1009.3 - 10.4 - Cloudy 10 - - - -
17/07:00pm 28.3 E 5 7 1009.3 - 10.4 - Cloudy 10 - - - -
17/06:30pm 28.6 ENE 7 9 1008.9 - 10.4 - Partly cloudy 10 - - - -
17/06:00pm 29.4 ENE 8 13 1008.4 - 10.4 - Mostly cloudy 10 - - - -
17/05:30pm 30.0 ENE 7 9 1008.1 - 10.4 - Partly cloudy 10 - - - -
17/05:00pm 30.4 ENE 8 10 1007.9 - 10.4 - - 10 - - - -
17/04:30pm 29.4 E 6 7 1007.6 - 10.4 - Partly cloudy 10 - - - -
17/04:01pm 27.4 ENE 4 5 1007.6 - 10.4 - Partly cloudy 10 - - - -
17/04:00pm 27.4 ENE 4 5 1007.6 - 10.4 - Partly cloudy 10 - - - -
17/03:31pm 27.5 ESE 13 27 1007.9 - 3.0 - Partly cloudy 4 - - - -
17/03:30pm 28.0 ESE 12 27 1007.8 - 1.8 - Partly cloudy 7 - - - -
17/03:00pm 30.7 ENE 9 12 1007.8 - 0.2 - Mostly cloudy 10 - - - -
17/02:30pm 30.2 ENE 9 11 1007.9 - 0.2 - Cloudy 10 - - - -
17/02:00pm 29.6 ENE 9 11 1008.3 - 0.2 - Partly cloudy 10 - - - -
17/01:30pm 29.2 ENE 16 24 1008.8 - 0.2 - Partly cloudy 10 - - - -
17/01:00pm 32.6 ENE 13 17 1008.8 - 0.2 - Partly cloudy 10 - - - -
17/12:30pm 31.9 NE 13 18 1009.3 - 0.2 - Partly cloudy 10 - - - -
17/12:00pm 31.6 E 13 25 1009.8 - 0.2 - Cloudy 10 - - - -
17/11:30am 30.9 E 11 16 1010.3 - 0.2 - Partly cloudy 10 - - - -
17/11:00am 30.5 E 11 14 1010.8 - 0.2 - Partly cloudy 10 - - - -
17/10:30am 30.2 E 12 16 1011.1 - 0.0 - Partly cloudy 10 - - - -
17/10:00am 29.8 E 11 14 1011.1 - 0.0 - Partly cloudy 10 - - - -
17/09:30am 29.0 E 11 15 1011.1 - 0.0 - - 10 - - - -
17/09:00am 28.1 E 10 13 1011.1 - - - Mostly clear 10 - - - -
17/08:30am 27.2 ESE 8 10 1010.9 - - - - 10 - - - -
17/08:00am 26.4 ESE 7 9 1010.8 - - - - 10 - - - -
17/07:30am 25.4 SE 5 6 1010.7 - - - - 10 - - - -
17/07:00am 24.4 SE 4 6 1010.3 - - - - 10 - - - -
17/06:30am 24.2 SE 4 5 1010.0 - - - - 10 - - - -
17/06:00am 24.3 SE 4 5 1009.6 - - - - 10 - - - -
17/05:30am 24.4 SE 3 5 1009.4 - - - - 10 - - - -
17/05:00am 24.6 SE 5 7 1009.3 - - - - 10 - - - -
17/04:30am 24.5 SE 4 5 1009.1 - - - - 10 - - - -
17/04:00am 24.7 SE 5 7 1009.1 - - - - 10 - - - -

Other Formats:

Comma delimited format used in spreadsheet applications
http://www.bom.gov.au/fwo/IDQ60701/IDQ60701.94170.axf

JavaScript Object Notation format (JSON) in row-major order
http://www.bom.gov.au/fwo/IDQ60701/IDQ60701.94170.json